createdAt,value
2018-10-02T00:01:58.607Z,4.77
2018-10-02T00:04:24.905Z,4.30
2018-10-02T00:06:51.934Z,4.40
2018-10-02T00:09:18.229Z,4.63
2018-10-02T00:11:44.559Z,4.23
2018-10-02T00:14:27.695Z,4.37
2018-10-02T00:16:53.961Z,5.30
2018-10-02T00:19:20.981Z,4.30
2018-10-02T00:21:47.253Z,4.47
2018-10-02T00:24:14.278Z,3.70
2018-10-02T00:26:40.562Z,4.73
2018-10-02T00:29:06.881Z,4.33
2018-10-02T00:31:33.223Z,5.33
2018-10-02T00:33:59.448Z,5.07
2018-10-02T00:36:25.740Z,4.13
2018-10-02T00:38:52.021Z,4.33
2018-10-02T00:41:18.327Z,4.77
2018-10-02T00:43:45.349Z,4.20
2018-10-02T00:46:12.401Z,4.63
2018-10-02T00:48:38.667Z,4.70
2018-10-02T00:51:04.973Z,4.50
2018-10-02T00:53:32.002Z,4.80
2018-10-02T00:55:58.291Z,3.60
2018-10-02T00:58:24.576Z,4.27
2018-10-02T01:00:50.864Z,4.30
2018-10-02T01:03:17.146Z,4.10
2018-10-02T01:05:44.162Z,4.37
2018-10-02T01:08:10.457Z,4.07
2018-10-02T01:10:36.731Z,4.67
2018-10-02T01:13:03.038Z,4.40
2018-10-02T01:15:29.340Z,3.87
2018-10-02T01:17:55.616Z,4.70
2018-10-02T01:20:21.921Z,4.65
2018-10-02T01:22:48.235Z,4.93
2018-10-02T01:25:14.549Z,4.20
2018-10-02T01:27:40.792Z,5.33
2018-10-02T01:30:07.058Z,4.23
2018-10-02T01:32:33.347Z,4.57
2018-10-02T01:35:00.351Z,5.47
2018-10-02T01:37:26.633Z,5.97
2018-10-02T01:39:52.913Z,4.60
2018-10-02T01:42:19.228Z,5.50
2018-10-02T01:44:45.493Z,5.00
2018-10-02T01:47:11.772Z,5.27
2018-10-02T01:49:45.048Z,4.70
2018-10-02T01:52:11.352Z,5.40
2018-10-02T01:54:38.345Z,5.13
2018-10-02T01:57:04.712Z,4.70
2018-10-02T01:59:31.027Z,5.37
2018-10-02T02:01:57.240Z,3.77
2018-10-02T02:04:23.536Z,4.23
2018-10-02T02:06:50.593Z,4.30
2018-10-02T02:09:16.847Z,4.40
2018-10-02T02:11:43.150Z,3.47
2018-10-02T02:14:09.453Z,4.87
2018-10-02T02:16:35.688Z,4.33
2018-10-02T02:19:01.984Z,4.27
2018-10-02T02:21:28.265Z,3.73
2018-10-02T02:23:55.389Z,4.62
2018-10-02T02:26:21.665Z,5.23
2018-10-02T02:28:47.931Z,4.68
2018-10-02T02:31:14.264Z,4.55
2018-10-02T02:33:40.512Z,5.47
2018-10-02T02:36:06.832Z,4.60
2018-10-02T02:38:33.115Z,5.43
2018-10-02T02:40:59.398Z,4.10
2018-10-02T02:43:25.719Z,5.25
2018-10-02T02:45:52.037Z,5.60
2018-10-02T02:48:36.173Z,5.73
2018-10-02T02:51:02.482Z,5.35
2018-10-02T02:53:28.804Z,4.65
2018-10-02T02:55:55.855Z,5.47
2018-10-02T02:58:22.161Z,4.60
2018-10-02T03:00:48.468Z,4.87
2018-10-02T03:03:14.769Z,5.20
2018-10-02T03:05:41.025Z,5.05
2018-10-02T03:08:07.324Z,4.68
2018-10-02T03:10:33.580Z,5.85
2018-10-02T03:12:59.883Z,6.10
2018-10-02T03:15:26.136Z,5.40
2018-10-02T03:17:52.464Z,5.22
2018-10-02T03:20:18.766Z,6.05
2018-10-02T03:22:45.754Z,5.12
2018-10-02T03:25:12.079Z,5.65
2018-10-02T03:27:38.341Z,5.90
2018-10-02T03:30:04.665Z,5.70
2018-10-02T03:32:30.932Z,4.30
2018-10-02T03:34:57.972Z,4.30
2018-10-02T03:37:25.016Z,5.70
2018-10-02T03:39:51.289Z,4.40
2018-10-02T03:42:17.578Z,5.03
2018-10-02T03:44:43.845Z,4.47
2018-10-02T03:47:10.150Z,4.82
2018-10-02T03:49:37.150Z,4.60
2018-10-02T03:52:03.449Z,4.57
2018-10-02T03:54:29.721Z,4.95
2018-10-02T03:56:56.027Z,4.87
2018-10-02T03:59:22.329Z,5.50
2018-10-02T04:01:49.391Z,4.70
2018-10-02T04:04:15.679Z,4.10
2018-10-02T04:06:41.944Z,4.18
2018-10-02T04:09:09.032Z,5.30
2018-10-02T04:11:35.345Z,4.47
2018-10-02T04:14:01.627Z,4.07
2018-10-02T04:16:27.924Z,4.53
2018-10-02T04:18:54.172Z,4.97
2018-10-02T04:21:20.966Z,4.80
2018-10-02T04:23:47.304Z,5.00
2018-10-02T04:26:16.274Z,4.00
2018-10-02T04:28:43.549Z,4.70
2018-10-02T04:31:09.853Z,4.15
2018-10-02T04:33:36.145Z,4.18
2018-10-02T04:36:03.078Z,4.32
2018-10-02T04:38:29.485Z,3.33
2018-10-02T04:40:56.545Z,4.18
2018-10-02T04:43:22.847Z,3.78
2018-10-02T04:45:50.306Z,3.90
2018-10-02T04:48:16.685Z,3.75
2018-10-02T04:50:42.957Z,4.10
2018-10-02T04:53:09.895Z,3.33
2018-10-02T04:55:36.244Z,4.12
2018-10-02T04:58:02.493Z,3.42
2018-10-02T05:00:29.709Z,4.47
2018-10-02T05:02:57.533Z,4.05
2018-10-02T05:05:24.054Z,5.12
2018-10-02T05:07:51.766Z,3.83
2018-10-02T05:10:19.265Z,4.55
2018-10-02T05:12:46.362Z,4.18
2018-10-02T05:15:13.033Z,4.43
2018-10-02T05:17:40.163Z,4.50
2018-10-02T05:20:07.781Z,4.72
2018-10-02T05:22:34.413Z,4.37
2018-10-02T05:25:00.715Z,5.63
2018-10-02T05:27:27.437Z,5.12
2018-10-02T05:29:54.444Z,4.55
2018-10-02T05:32:21.684Z,4.90
2018-10-02T05:34:50.176Z,4.10
2018-10-02T05:37:17.388Z,4.85
2018-10-02T05:39:44.453Z,4.53
2018-10-02T05:42:11.757Z,4.47
2018-10-02T05:44:38.838Z,3.57
2018-10-02T05:47:05.204Z,3.80
2018-10-02T05:49:32.250Z,4.60
2018-10-02T05:51:59.270Z,4.00
2018-10-02T05:54:25.581Z,4.30
2018-10-02T05:56:51.893Z,5.25
2018-10-02T05:59:18.213Z,4.67
2018-10-02T06:01:46.413Z,3.77
2018-10-02T06:04:12.744Z,3.97
2018-10-02T06:06:39.011Z,4.37
2018-10-02T06:09:05.349Z,3.90
2018-10-02T06:11:31.619Z,4.30
2018-10-02T06:13:57.904Z,4.60
2018-10-02T06:16:24.267Z,3.63
2018-10-02T06:18:50.642Z,5.87
2018-10-02T06:21:17.641Z,3.63
2018-10-02T06:23:44.824Z,4.23
2018-10-02T06:26:11.152Z,3.60
2018-10-02T06:28:37.465Z,4.67
2018-10-02T06:31:03.766Z,3.70
2018-10-02T06:33:30.050Z,4.70
2018-10-02T06:35:56.334Z,3.47
2018-10-02T06:38:26.286Z,3.33
2018-10-02T06:40:54.216Z,3.33
2018-10-02T06:43:20.852Z,3.80
2018-10-02T06:45:47.176Z,3.20
2018-10-02T06:48:13.454Z,3.80
2018-10-02T06:50:39.856Z,4.07
2018-10-02T06:53:06.257Z,4.10
2018-10-02T06:55:32.605Z,4.07
2018-10-02T06:57:59.036Z,3.77
2018-10-02T07:00:25.469Z,3.57
2018-10-02T07:02:51.784Z,4.53
2018-10-02T07:05:18.113Z,4.10
2018-10-02T07:07:46.425Z,3.70
2018-10-02T07:10:12.907Z,4.70
2018-10-02T07:12:39.277Z,3.67
2018-10-02T07:15:05.694Z,4.33
2018-10-02T07:17:33.697Z,3.30
2018-10-02T07:20:00.146Z,3.30
2018-10-02T07:22:27.181Z,4.30
2018-10-02T07:24:54.240Z,3.73
2018-10-02T07:27:21.433Z,4.50
2018-10-02T07:29:49.855Z,3.80
2018-10-02T07:32:16.210Z,3.50
2018-10-02T07:34:42.571Z,3.80
2018-10-02T07:37:08.922Z,3.63
2018-10-02T07:39:35.170Z,4.30
2018-10-02T07:42:01.538Z,4.13
2018-10-02T07:44:27.822Z,4.47
2018-10-02T07:46:54.121Z,3.80
2018-10-02T07:49:20.452Z,3.57
2018-10-02T07:51:46.767Z,4.43
2018-10-02T07:54:13.769Z,4.30
2018-10-02T07:56:40.970Z,3.57
2018-10-02T07:59:08.160Z,3.50
2018-10-02T08:01:39.377Z,3.33
2018-10-02T08:04:05.932Z,5.67
2018-10-02T08:06:32.501Z,3.60
2018-10-02T08:09:00.833Z,4.80
2018-10-02T08:11:27.200Z,3.60
2018-10-02T08:13:53.496Z,3.90
2018-10-02T08:16:19.787Z,4.07
2018-10-02T08:18:46.373Z,3.83
2018-10-02T08:21:12.657Z,3.70
2018-10-02T08:23:39.022Z,3.70
2018-10-02T08:26:05.248Z,4.17
2018-10-02T08:28:32.285Z,3.83
2018-10-02T08:30:59.452Z,4.80
2018-10-02T08:33:25.929Z,5.40
2018-10-02T08:35:52.315Z,4.63
2018-10-02T08:38:19.267Z,3.90
2018-10-02T08:40:45.602Z,4.53
2018-10-02T08:43:11.867Z,4.50
2018-10-02T08:45:38.213Z,5.17
2018-10-02T08:48:04.561Z,5.47
2018-10-02T08:50:30.955Z,4.10
2018-10-02T08:52:57.210Z,4.60
2018-10-02T08:55:23.507Z,4.90
2018-10-02T08:57:49.813Z,4.00
2018-10-02T09:00:16.138Z,4.07
2018-10-02T09:02:42.429Z,5.27
2018-10-02T09:05:08.696Z,6.10
2018-10-02T09:07:35.790Z,4.07
2018-10-02T09:10:02.102Z,4.23
2018-10-02T09:12:28.458Z,5.13
2018-10-02T09:14:55.232Z,5.13
2018-10-02T09:17:21.686Z,4.63
2018-10-02T09:19:47.989Z,4.93
2018-10-02T09:22:14.304Z,6.20
2018-10-02T09:24:40.692Z,5.57
2018-10-02T09:27:06.932Z,5.37
2018-10-02T09:29:33.236Z,5.47
2018-10-02T09:32:18.197Z,5.20
2018-10-02T09:34:51.937Z,5.23
2018-10-02T09:37:35.877Z,9.00
2018-10-02T09:40:08.393Z,12.33
2018-10-02T09:42:40.903Z,10.90
2018-10-02T09:45:07.189Z,9.27
2018-10-02T09:47:33.528Z,6.97
2018-10-02T09:49:59.874Z,6.67
2018-10-02T09:52:26.186Z,5.80
2018-10-02T09:54:52.482Z,5.27
2018-10-02T09:57:19.485Z,5.77
2018-10-02T09:59:45.772Z,4.83
2018-10-02T10:02:12.914Z,4.57
2018-10-02T10:04:39.318Z,5.53
2018-10-02T10:07:05.681Z,6.57
2018-10-02T10:09:32.738Z,5.00
2018-10-02T10:11:59.770Z,5.53
2018-10-02T10:14:26.827Z,5.07
2018-10-02T10:16:53.919Z,5.30
2018-10-02T10:19:21.571Z,5.47
2018-10-02T10:21:47.858Z,5.43
2018-10-02T10:24:18.133Z,5.03
2018-10-02T10:26:46.389Z,6.07
2018-10-02T10:29:12.743Z,4.53
2018-10-02T10:31:39.043Z,4.83
2018-10-02T10:34:06.661Z,4.27
2018-10-02T10:36:34.526Z,5.90
2018-10-02T10:39:00.843Z,6.03
2018-10-02T10:41:29.117Z,6.67
2018-10-02T10:43:55.482Z,4.03
2018-10-02T10:46:21.781Z,4.10
2018-10-02T10:48:48.059Z,4.33
2018-10-02T10:51:14.349Z,4.37
2018-10-02T10:53:40.603Z,4.10
2018-10-02T10:56:07.711Z,5.93
2018-10-02T10:58:34.111Z,4.80
2018-10-02T11:01:01.149Z,3.73
2018-10-02T11:03:27.414Z,3.63
2018-10-02T11:05:53.724Z,3.77
2018-10-02T11:08:20.735Z,3.70
2018-10-02T11:10:47.262Z,3.00
2018-10-02T11:13:13.549Z,3.20
2018-10-02T11:15:39.845Z,3.37
2018-10-02T11:18:06.148Z,3.10
2018-10-02T11:20:32.477Z,3.07
2018-10-02T11:23:01.706Z,2.93
2018-10-02T11:25:28.213Z,2.67
2018-10-02T11:27:54.463Z,3.50
2018-10-02T11:30:21.819Z,2.73
2018-10-02T11:32:51.939Z,3.07
2018-10-02T11:35:21.158Z,3.27
2018-10-02T11:37:47.607Z,3.10
2018-10-02T11:40:14.331Z,3.30
2018-10-02T11:42:40.628Z,4.00
2018-10-02T11:45:07.447Z,3.27
2018-10-02T11:47:33.565Z,2.97
2018-10-02T11:50:00.150Z,2.70
2018-10-02T11:52:27.137Z,2.40
2018-10-02T11:54:54.194Z,3.07
2018-10-02T11:57:20.527Z,3.47
2018-10-02T11:59:47.574Z,3.20
2018-10-02T12:02:13.937Z,2.50
2018-10-02T12:04:41.171Z,3.63
2018-10-02T12:07:07.486Z,3.30
2018-10-02T12:09:33.794Z,3.13
2018-10-02T12:12:00.816Z,3.50
2018-10-02T12:14:27.589Z,2.53
2018-10-02T12:16:54.261Z,2.80
2018-10-02T12:19:21.532Z,3.13
2018-10-02T12:21:48.841Z,2.90
2018-10-02T12:24:15.229Z,3.30
2018-10-02T12:26:42.973Z,3.13
2018-10-02T12:29:09.268Z,3.37
2018-10-02T12:31:36.798Z,3.47
2018-10-02T12:34:04.787Z,2.80
2018-10-02T12:36:31.192Z,3.27
2018-10-02T12:38:57.463Z,3.10
2018-10-02T12:41:25.333Z,3.70
2018-10-02T12:43:51.676Z,3.70
2018-10-02T12:46:18.707Z,3.83
2018-10-02T12:48:44.973Z,3.43
2018-10-02T12:51:12.348Z,3.70
2018-10-02T12:53:39.397Z,3.57
2018-10-02T12:56:05.769Z,3.40
2018-10-02T12:58:32.058Z,3.43
2018-10-02T13:00:58.406Z,2.87
2018-10-02T13:03:24.726Z,3.10
2018-10-02T13:05:51.021Z,3.60
2018-10-02T13:08:17.276Z,3.30
2018-10-02T13:10:43.589Z,3.40
2018-10-02T13:13:09.946Z,3.60
2018-10-02T13:15:37.075Z,2.70
2018-10-02T13:18:06.270Z,3.20
2018-10-02T13:20:35.101Z,3.67
2018-10-02T13:23:02.230Z,3.60
2018-10-02T13:25:30.687Z,4.07
2018-10-02T13:27:58.628Z,3.10
2018-10-02T13:30:28.827Z,3.87
2018-10-02T13:32:58.255Z,3.60
2018-10-02T13:35:30.011Z,4.47
2018-10-02T13:37:58.491Z,4.27
2018-10-02T13:40:27.089Z,4.30
2018-10-02T13:42:54.956Z,3.60
2018-10-02T13:45:24.796Z,3.77
2018-10-02T13:47:53.910Z,3.60
2018-10-02T13:50:24.791Z,3.33
2018-10-02T13:52:55.056Z,3.13
2018-10-02T13:55:24.416Z,4.20
2018-10-02T13:57:55.502Z,3.67
2018-10-02T14:00:23.609Z,5.10
2018-10-02T14:02:55.957Z,5.03
2018-10-02T14:05:27.523Z,4.07
2018-10-02T14:07:56.740Z,4.07
2018-10-02T14:10:29.833Z,4.33
2018-10-02T14:13:03.170Z,4.20
2018-10-02T14:15:41.417Z,5.40
2018-10-02T14:18:09.417Z,4.73
2018-10-02T14:20:37.905Z,3.73
2018-10-02T14:23:06.183Z,4.17
2018-10-02T14:25:35.930Z,3.77
2018-10-02T14:28:06.586Z,4.30
2018-10-02T14:30:33.883Z,4.63
2018-10-02T14:33:03.386Z,4.17
2018-10-02T14:35:35.651Z,4.70
2018-10-02T14:38:06.688Z,4.20
2018-10-02T14:40:34.511Z,4.50
2018-10-02T14:43:03.106Z,4.73
2018-10-02T14:45:32.454Z,5.97
2018-10-02T14:47:59.232Z,5.10
2018-10-02T14:50:26.526Z,4.97
2018-10-02T14:52:58.828Z,5.40
2018-10-02T14:55:29.434Z,5.20
2018-10-02T14:57:58.883Z,5.93
2018-10-02T15:00:26.584Z,5.43
2018-10-02T15:02:53.289Z,5.50
2018-10-02T15:05:19.626Z,6.70
2018-10-02T15:07:46.828Z,5.13
2018-10-02T15:10:13.484Z,5.77
2018-10-02T15:12:39.764Z,5.53
2018-10-02T15:15:07.213Z,5.60
2018-10-02T15:17:34.245Z,6.07
2018-10-02T15:20:00.573Z,5.10
2018-10-02T15:22:28.263Z,6.20
2018-10-02T15:24:57.364Z,5.87
2018-10-02T15:27:23.959Z,5.20
2018-10-02T15:29:50.222Z,6.10
2018-10-02T15:32:16.543Z,5.63
2018-10-02T15:34:42.845Z,5.67
2018-10-02T15:37:09.176Z,5.83
2018-10-02T15:39:35.472Z,5.20
2018-10-02T15:42:02.481Z,5.70
2018-10-02T15:44:28.972Z,5.50
2018-10-02T15:46:55.293Z,5.80
2018-10-02T15:49:21.570Z,5.80
2018-10-02T15:51:47.853Z,5.00
2018-10-02T15:54:14.128Z,5.07
2018-10-02T15:56:40.835Z,5.17
2018-10-02T15:59:08.237Z,4.60
2018-10-02T16:01:35.894Z,4.53
2018-10-02T16:04:02.705Z,4.27
2018-10-02T16:06:29.336Z,4.43
2018-10-02T16:08:55.715Z,4.47
2018-10-02T16:11:22.605Z,5.90
2018-10-02T16:13:48.734Z,4.83
2018-10-02T16:16:15.303Z,4.90
2018-10-02T16:18:41.608Z,5.33
2018-10-02T16:21:08.465Z,5.53
2018-10-02T16:23:34.721Z,5.40
2018-10-02T16:26:01.606Z,4.30
2018-10-02T16:28:28.113Z,4.77
2018-10-02T16:30:54.772Z,4.70
2018-10-02T16:33:21.034Z,4.27
2018-10-02T16:35:47.330Z,4.10
2018-10-02T16:38:14.500Z,4.10
2018-10-02T16:40:41.873Z,3.63
2018-10-02T16:43:08.205Z,3.90
2018-10-02T16:45:35.825Z,4.33
2018-10-02T16:48:02.221Z,3.67
2018-10-02T16:50:28.997Z,3.90
2018-10-02T16:52:55.565Z,3.60
2018-10-02T16:55:22.914Z,4.07
2018-10-02T16:57:49.245Z,3.90
2018-10-02T17:00:15.569Z,3.70
2018-10-02T17:02:42.608Z,4.13
2018-10-02T17:05:08.917Z,4.00
2018-10-02T17:07:35.182Z,4.50
2018-10-02T17:10:02.237Z,4.60
2018-10-02T17:12:28.488Z,5.43
2018-10-02T17:14:54.785Z,5.17
2018-10-02T17:17:21.096Z,4.10
2018-10-02T17:19:47.343Z,5.03
2018-10-02T17:22:13.683Z,5.00
2018-10-02T17:24:40.769Z,4.50
2018-10-02T17:27:07.110Z,4.17
2018-10-02T17:29:33.869Z,5.33
2018-10-02T17:32:00.128Z,5.00
2018-10-02T17:34:28.462Z,4.60
2018-10-02T17:36:55.884Z,5.13
2018-10-02T17:39:26.401Z,5.43
2018-10-02T17:41:53.710Z,4.37
2018-10-02T17:44:20.838Z,4.87
2018-10-02T17:46:50.079Z,4.63
2018-10-02T17:49:16.406Z,3.80
2018-10-02T17:54:18.497Z,4.80
2018-10-02T17:56:46.073Z,5.20
2018-10-02T17:59:13.324Z,4.70
2018-10-02T18:01:39.897Z,4.13
2018-10-02T18:04:07.042Z,4.90
2018-10-02T18:06:33.890Z,4.57
2018-10-02T18:09:00.803Z,4.10
2018-10-02T18:11:28.402Z,4.30
2018-10-02T18:13:55.364Z,4.67
2018-10-02T18:16:21.886Z,3.87
2018-10-02T18:18:48.901Z,3.60
2018-10-02T18:21:18.233Z,3.93
2018-10-02T18:23:45.257Z,3.77
2018-10-02T18:26:12.715Z,4.07
2018-10-02T18:28:40.924Z,4.37
2018-10-02T18:31:08.529Z,3.73
2018-10-02T18:33:35.970Z,4.30
2018-10-02T18:36:02.344Z,4.10
2018-10-02T18:38:29.150Z,4.20
2018-10-02T18:40:55.624Z,5.10
2018-10-02T18:43:21.971Z,4.60
2018-10-02T18:45:48.541Z,4.80
2018-10-02T18:48:14.844Z,4.03
2018-10-02T18:50:44.565Z,4.57
2018-10-02T18:53:10.980Z,4.20
2018-10-02T18:55:37.310Z,4.40
2018-10-02T18:58:03.995Z,4.40
2018-10-02T19:00:30.285Z,4.97
2018-10-02T19:02:56.596Z,5.10
2018-10-02T19:05:22.917Z,4.80
2018-10-02T19:07:49.233Z,5.27
2018-10-02T19:10:15.581Z,4.93
2018-10-02T19:12:42.574Z,5.33
2018-10-02T19:15:08.838Z,4.90
2018-10-02T19:17:35.188Z,5.10
2018-10-02T19:20:01.568Z,4.90
2018-10-02T19:22:28.755Z,6.30
2018-10-02T19:24:58.072Z,6.17
2018-10-02T19:27:25.036Z,6.80
2018-10-02T19:29:52.307Z,6.20
2018-10-02T19:32:18.740Z,5.30
2018-10-02T19:34:45.121Z,5.40
2018-10-02T19:37:11.832Z,6.53
2018-10-02T19:39:38.183Z,6.67
2018-10-02T19:42:05.153Z,5.80
2018-10-02T19:44:33.381Z,6.30
2018-10-02T19:47:10.224Z,6.47
2018-10-02T19:49:36.997Z,7.40
2018-10-02T19:52:04.164Z,6.47
2018-10-02T19:54:30.546Z,7.17
2018-10-02T19:56:57.867Z,6.60
2018-10-02T19:59:25.573Z,7.50
2018-10-02T20:01:54.944Z,7.37
2018-10-02T20:04:21.299Z,7.07
2018-10-02T20:06:47.558Z,6.60
2018-10-02T20:09:13.833Z,7.43
2018-10-02T20:11:40.176Z,7.30
2018-10-02T20:14:06.464Z,7.37
2018-10-02T20:16:32.781Z,7.30
2018-10-02T20:18:59.065Z,8.00
2018-10-02T20:21:25.394Z,7.63
2018-10-02T20:23:51.625Z,7.83
2018-10-02T20:26:17.973Z,8.00
2018-10-02T20:28:44.237Z,7.40
2018-10-02T20:31:10.490Z,8.00
2018-10-02T20:33:36.833Z,8.13
2018-10-02T20:36:03.118Z,7.83
2018-10-02T20:38:29.409Z,8.17
2018-10-02T20:40:55.712Z,8.83
2018-10-02T20:43:21.995Z,8.30
2018-10-02T20:45:48.297Z,8.20
2018-10-02T20:48:15.291Z,9.67
2018-10-02T20:50:41.585Z,8.83
2018-10-02T20:53:07.872Z,9.77
2018-10-02T20:55:34.150Z,8.30
2018-10-02T20:58:00.453Z,10.30
2018-10-02T21:00:26.728Z,9.43
2018-10-02T21:02:53.055Z,9.30
2018-10-02T21:05:19.392Z,9.30
2018-10-02T21:07:45.636Z,10.30
2018-10-02T21:10:11.887Z,10.27
2018-10-02T21:12:38.168Z,9.73
2018-10-02T21:15:04.506Z,9.67
2018-10-02T21:17:30.775Z,9.90
2018-10-02T21:19:57.065Z,9.97
2018-10-02T21:22:23.341Z,10.33
2018-10-02T21:24:49.628Z,11.87
2018-10-02T21:27:15.901Z,12.13
2018-10-02T21:29:42.203Z,12.20
2018-10-02T21:32:08.458Z,10.80
2018-10-02T21:34:34.845Z,11.57
2018-10-02T21:37:01.100Z,11.70
2018-10-02T21:39:27.360Z,11.13
2018-10-02T21:41:53.709Z,11.77
2018-10-02T21:44:27.029Z,10.93
2018-10-02T21:46:53.306Z,11.03
2018-10-02T21:49:19.549Z,12.07
2018-10-02T21:51:45.831Z,10.80
2018-10-02T21:54:12.078Z,11.60
2018-10-02T21:56:38.408Z,11.33
2018-10-02T21:59:04.684Z,11.80
2018-10-02T22:01:30.960Z,13.40
2018-10-02T22:03:57.236Z,11.10
2018-10-02T22:06:23.485Z,12.13
2018-10-02T22:08:50.472Z,10.10
2018-10-02T22:11:16.797Z,11.90
2018-10-02T22:13:43.080Z,11.00
2018-10-02T22:16:09.344Z,13.33
2018-10-02T22:18:35.625Z,12.27
2018-10-02T22:21:01.947Z,12.27
2018-10-02T22:23:28.260Z,13.07
2018-10-02T22:25:54.544Z,12.87
2018-10-02T22:28:20.840Z,12.07
2018-10-02T22:30:47.088Z,11.87
2018-10-02T22:33:13.438Z,11.03
2018-10-02T22:35:40.281Z,10.87
2018-10-02T22:38:06.641Z,11.87
2018-10-02T22:40:32.929Z,11.40
2018-10-02T22:42:59.184Z,10.50
2018-10-02T22:45:25.521Z,10.43
2018-10-02T22:47:51.804Z,11.67
2018-10-02T22:50:18.161Z,9.60
2018-10-02T22:52:44.433Z,10.00
2018-10-02T22:55:10.725Z,8.93
2018-10-02T22:57:37.412Z,9.57
2018-10-02T23:00:05.115Z,8.97
2018-10-02T23:02:38.417Z,9.27
2018-10-02T23:05:04.733Z,8.20
2018-10-02T23:07:34.966Z,8.63
2018-10-02T23:10:02.234Z,8.97
2018-10-02T23:12:28.548Z,9.53
2018-10-02T23:14:54.849Z,8.70
2018-10-02T23:17:21.089Z,9.00
2018-10-02T23:19:47.344Z,9.80
2018-10-02T23:22:13.629Z,8.73
2018-10-02T23:24:39.951Z,9.83
2018-10-02T23:27:06.254Z,9.20
2018-10-02T23:29:32.529Z,8.37
2018-10-02T23:31:58.796Z,10.40
2018-10-02T23:34:25.078Z,11.17
2018-10-02T23:36:51.440Z,10.27
2018-10-02T23:39:17.717Z,11.40
2018-10-02T23:41:44.781Z,11.23
2018-10-02T23:44:11.073Z,12.50
2018-10-02T23:46:37.373Z,12.83
2018-10-02T23:49:03.637Z,12.00
2018-10-02T23:51:29.961Z,12.90
2018-10-02T23:53:56.213Z,13.47
2018-10-02T23:56:23.264Z,14.27
2018-10-02T23:58:50.255Z,13.50
